Time;durP1;ratioP1;P1;durP2;ratioP2;P2;SDS_P1;SDS_P2;PMS_P1;PMS_P2;Temp;Humidity;BMP_temperature;BMP_pressure;BME280_temperature;BME280_humidity;BME280_pressure;Samples;Min_cycle;Max_cycle;Signal;HPM_P1;HPM_P2
2022/06/22 00:03:40;;;;;;;8.40;7.50;;;;;;;;;;12634491;28;20031;-81
2022/06/22 00:09:43;;;;;;;8.32;7.53;;;;;;;;;;12656758;28;20390;-77
2022/06/22 00:15:49;;;;;;;8.32;6.00;;;;;;;;;;12640016;28;20036;-77
2022/06/22 00:21:51;;;;;;;9.60;7.30;;;;;;;;;;12636853;28;20040;-77
2022/06/22 00:27:53;;;;;;;7.15;6.07;;;;;;;;;;12624354;28;20036;-82
2022/06/22 00:34:17;;;;;;;5.88;5.30;;;;;;;;;;12654043;28;20115;-78
2022/06/22 00:40:19;;;;;;;7.07;5.35;;;;;;;;;;12641357;28;20040;-81
2022/06/22 00:46:24;;;;;;;4.97;4.50;;;;;;;;;;12618982;28;20044;-76
2022/06/22 00:52:38;;;;;;;4.75;4.22;;;;;;;;;;12635787;28;20047;-82
2022/06/22 00:58:52;;;;;;;8.85;5.00;;;;;;;;;;12656129;28;20529;-81
2022/06/22 01:04:57;;;;;;;5.93;4.75;;;;;;;;;;12652807;28;20036;-77
2022/06/22 01:12:16;;;;;;;14.90;10.80;;;;;;;;;;12659857;28;20047;-80
2022/06/22 01:17:36;;;;;;;10.30;8.20;;;;;;;;;;12652310;28;20510;-81
2022/06/22 01:23:41;;;;;;;7.85;5.90;;;;;;;;;;12626095;28;20039;-77
2022/06/22 01:29:54;;;;;;;6.50;5.68;;;;;;;;;;12633592;28;20028;-77
2022/06/22 01:35:57;;;;;;;6.75;4.68;;;;;;;;;;12651865;28;20039;-81
2022/06/22 01:42:05;;;;;;;8.88;5.28;;;;;;;;;;12616786;28;20060;-82
2022/06/22 01:48:25;;;;;;;7.93;5.28;;;;;;;;;;12632224;28;20043;-81
2022/06/22 01:54:33;;;;;;;5.80;4.32;;;;;;;;;;12633093;28;20505;-81
2022/06/22 02:00:34;;;;;;;5.22;3.97;;;;;;;;;;12651981;28;20145;-81
2022/06/22 02:13:37;;;;;;;3.85;2.50;;;;;;;;;;12631206;28;20077;-76
2022/06/22 02:19:39;;;;;;;3.35;2.25;;;;;;;;;;12652504;28;20480;-82
2022/06/22 02:26:02;;;;;;;3.20;2.63;;;;;;;;;;12631293;28;20028;-82
2022/06/22 02:32:05;;;;;;;3.65;2.15;;;;;;;;;;12631925;28;20048;-81
2022/06/22 02:38:09;;;;;;;3.47;2.17;;;;;;;;;;12630256;28;20059;-82
2022/06/22 02:44:30;;;;;;;3.15;2.28;;;;;;;;;;12647784;28;20047;-77
2022/06/22 02:50:48;;;;;;;3.42;2.08;;;;;;;;;;12647846;28;20040;-82
2022/06/22 02:56:52;;;;;;;4.03;2.92;;;;;;;;;;12614136;28;20039;-82
2022/06/22 03:02:56;;;;;;;7.13;3.33;;;;;;;;;;12647564;28;20036;-82
2022/06/22 03:09:00;;;;;;;3.47;2.50;;;;;;;;;;12613253;28;20036;-77
2022/06/22 03:15:03;;;;;;;5.35;2.58;;;;;;;;;;12649597;28;20729;-82
2022/06/22 03:21:08;;;;;;;2.63;1.73;;;;;;;;;;12647936;28;20479;-77
2022/06/22 03:27:22;;;;;;;2.53;1.90;;;;;;;;;;12610858;28;20051;-76
2022/06/22 03:33:29;;;;;;;3.60;1.95;;;;;;;;;;12633768;28;20047;-82
2022/06/22 03:39:33;;;;;;;5.15;1.85;;;;;;;;;;12627862;28;20051;-77
2022/06/22 03:45:39;;;;;;;2.78;1.52;;;;;;;;;;12646057;28;20032;-77
2022/06/22 03:51:54;;;;;;;4.18;1.70;;;;;;;;;;12630244;28;20036;-81
2022/06/22 03:57:56;;;;;;;3.70;1.27;;;;;;;;;;12630268;28;20032;-81
2022/06/22 04:03:58;;;;;;;3.28;1.30;;;;;;;;;;12644613;28;20028;-75
2022/06/22 04:10:00;;;;;;;4.15;1.55;;;;;;;;;;12635550;28;20032;-76
2022/06/22 04:16:26;;;;;;;2.10;1.30;;;;;;;;;;12626873;28;20047;-77
2022/06/22 04:22:29;;;;;;;1.63;1.13;;;;;;;;;;12602941;28;20044;-82
2022/06/22 04:28:32;;;;;;;4.30;1.23;;;;;;;;;;12645400;28;20398;-76
2022/06/22 04:34:40;;;;;;;2.75;1.25;;;;;;;;;;12613072;28;20058;-82
2022/06/22 04:40:53;;;;;;;1.92;1.00;;;;;;;;;;12628040;28;20055;-82
2022/06/22 04:46:57;;;;;;;1.98;0.93;;;;;;;;;;12627581;28;20040;-83
2022/06/22 04:53:00;;;;;;;3.55;1.05;;;;;;;;;;12634724;28;20051;-77
2022/06/22 04:59:02;;;;;;;2.58;0.88;;;;;;;;;;12653471;28;20392;-83
2022/06/22 05:05:08;;;;;;;2.40;1.00;;;;;;;;;;12620401;28;20138;-76
2022/06/22 05:11:16;;;;;;;2.42;1.52;;;;;;;;;;12634052;28;20391;-82
2022/06/22 05:17:20;;;;;;;1.65;1.10;;;;;;;;;;12634816;28;20036;-82
2022/06/22 05:23:24;;;;;;;4.40;1.33;;;;;;;;;;12651287;28;20077;-77
2022/06/22 05:29:38;;;;;;;2.50;1.38;;;;;;;;;;12651283;28;20419;-77
2022/06/22 05:35:43;;;;;;;3.03;1.33;;;;;;;;;;12649519;28;20063;-85
2022/06/22 05:41:46;;;;;;;6.10;1.50;;;;;;;;;;12632610;28;20048;-78
2022/06/22 05:47:48;;;;;;;2.70;1.30;;;;;;;;;;12637151;28;20036;-84
2022/06/22 05:53:55;;;;;;;3.47;1.45;;;;;;;;;;12630993;28;20047;-85
2022/06/22 06:00:00;;;;;;;3.92;1.63;;;;;;;;;;12632021;28;20044;-84
2022/06/22 06:06:11;;;;;;;4.35;1.20;;;;;;;;;;12652509;28;20036;-85
2022/06/22 06:12:25;;;;;;;4.37;1.33;;;;;;;;;;12615706;28;20043;-84
2022/06/22 06:18:29;;;;;;;3.15;1.25;;;;;;;;;;12650498;28;20051;-84
2022/06/22 06:27:34;;;;;;;3.90;1.40;;;;;;;;;;12638692;28;20024;-82
2022/06/22 06:31:06;;;;;;;2.03;1.27;;;;;;;;;;12667043;28;20460;-84
2022/06/22 06:37:38;;;;;;;2.67;1.20;;;;;;;;;;12637461;28;20055;-83
2022/06/22 06:43:44;;;;;;;4.45;1.67;;;;;;;;;;12647823;28;20052;-84
2022/06/22 06:49:49;;;;;;;3.95;1.40;;;;;;;;;;12610503;28;20395;-82
2022/06/22 06:55:54;;;;;;;4.25;1.35;;;;;;;;;;12645862;28;20044;-81
2022/06/22 07:01:59;;;;;;;4.28;1.23;;;;;;;;;;12627451;28;20035;-81
2022/06/22 07:08:13;;;;;;;2.50;1.08;;;;;;;;;;12645064;28;20050;-85
2022/06/22 07:14:21;;;;;;;2.67;1.20;;;;;;;;;;12643829;28;20040;-81
2022/06/22 07:20:30;;;;;;;7.90;2.17;;;;;;;;;;12627782;28;20028;-86
2022/06/22 07:26:37;;;;;;;3.78;1.70;;;;;;;;;;12652900;28;20391;-85
2022/06/22 07:32:47;;;;;;;6.63;1.70;;;;;;;;;;12649474;28;20051;-85
2022/06/22 07:39:18;;;;;;;2.72;1.30;;;;;;;;;;12645599;28;20060;-84
2022/06/22 07:45:21;;;;;;;2.97;1.40;;;;;;;;;;12541436;28;20048;-85
2022/06/22 07:51:27;;;;;;;3.50;1.63;;;;;;;;;;12645978;28;20071;-84
2022/06/22 07:57:35;;;;;;;3.95;1.77;;;;;;;;;;12626939;28;20036;-83
2022/06/22 08:03:36;;;;;;;3.22;1.92;;;;;;;;;;12625585;28;20028;-82
2022/06/22 08:09:47;;;;;;;6.45;2.75;;;;;;;;;;12625647;28;20024;-83
2022/06/22 08:15:54;;;;;;;6.88;2.30;;;;;;;;;;12644402;28;20051;-84
2022/06/22 08:21:59;;;;;;;4.47;2.28;;;;;;;;;;12628557;28;20040;-84
2022/06/22 08:28:02;;;;;;;4.13;2.35;;;;;;;;;;12654702;28;20035;-85
2022/06/22 08:34:06;;;;;;;4.20;2.40;;;;;;;;;;12654883;28;20039;-86
2022/06/22 08:40:09;;;;;;;5.75;2.30;;;;;;;;;;12636412;28;20051;-81
2022/06/22 08:46:38;;;;;;;4.30;2.35;;;;;;;;;;12650436;28;20035;-80
2022/06/22 08:52:44;;;;;;;6.68;2.80;;;;;;;;;;12615575;28;20043;-77
2022/06/22 08:58:55;;;;;;;4.05;2.53;;;;;;;;;;12631708;28;20032;-78
2022/06/22 09:05:15;;;;;;;6.85;2.83;;;;;;;;;;12633209;28;20031;-80
2022/06/22 09:11:17;;;;;;;3.70;2.45;;;;;;;;;;12651493;28;20377;-79
2022/06/22 09:17:34;;;;;;;7.70;3.08;;;;;;;;;;12650861;28;20040;-83
2022/06/22 09:23:45;;;;;;;5.65;3.05;;;;;;;;;;12633531;28;20042;-86
2022/06/22 09:29:56;;;;;;;6.03;4.10;;;;;;;;;;12633467;28;20039;-81
2022/06/22 09:35:58;;;;;;;6.68;3.83;;;;;;;;;;12648987;28;20047;-83
2022/06/22 09:42:12;;;;;;;4.05;2.75;;;;;;;;;;12651648;28;20441;-79
2022/06/22 09:48:14;;;;;;;4.70;2.78;;;;;;;;;;12650691;28;20032;-77
2022/06/22 09:56:19;;;;;;;3.78;2.45;;;;;;;;;;12654170;28;20062;-81
2022/06/22 10:00:37;;;;;;;4.13;2.55;;;;;;;;;;12654754;28;20039;-78
2022/06/22 10:06:43;;;;;;;3.75;2.70;;;;;;;;;;12630997;28;20032;-81
2022/06/22 10:12:45;;;;;;;3.83;2.35;;;;;;;;;;12647886;28;20048;-80
2022/06/22 10:19:04;;;;;;;2.92;2.03;;;;;;;;;;12629374;28;20024;-79
2022/06/22 10:25:06;;;;;;;3.45;2.38;;;;;;;;;;12629308;28;20378;-80
2022/06/22 10:31:23;;;;;;;3.72;2.20;;;;;;;;;;12627779;28;20040;-79
2022/06/22 10:37:51;;;;;;;2.65;1.90;;;;;;;;;;12647995;28;20091;-86
2022/06/22 10:50:35;;;;;;;4.00;1.92;;;;;;;;;;12630173;28;20476;-85
2022/06/22 10:56:56;;;;;;;4.13;1.70;;;;;;;;;;12630736;28;20039;-85
2022/06/22 11:03:03;;;;;;;4.35;1.95;;;;;;;;;;12643878;28;20504;-86
2022/06/22 11:09:25;;;;;;;2.28;1.90;;;;;;;;;;12630139;28;20040;-85
2022/06/22 11:15:33;;;;;;;3.70;1.83;;;;;;;;;;12655868;28;20044;-86
2022/06/22 11:21:54;;;;;;;2.97;1.50;;;;;;;;;;12647918;28;20028;-86
2022/06/22 11:34:26;;;;;;;2.83;1.85;;;;;;;;;;12628374;28;20139;-87
2022/06/22 11:40:37;;;;;;;3.58;2.10;;;;;;;;;;12630206;28;20075;-86
2022/06/22 11:46:44;;;;;;;2.85;1.98;;;;;;;;;;12632091;28;20040;-83
2022/06/22 11:52:52;;;;;;;1.92;1.60;;;;;;;;;;12616070;28;20044;-87
2022/06/22 11:58:53;;;;;;;3.63;1.80;;;;;;;;;;12655466;28;20337;-87
2022/06/22 12:05:14;;;;;;;3.15;1.50;;;;;;;;;;12656657;28;20036;-87
2022/06/22 12:11:25;;;;;;;1.87;1.53;;;;;;;;;;12623508;28;20054;-87
2022/06/22 12:17:33;;;;;;;2.10;1.63;;;;;;;;;;12659732;28;20341;-88
2022/06/22 12:23:46;;;;;;;3.72;1.45;;;;;;;;;;12657135;28;20047;-85
2022/06/22 12:29:51;;;;;;;1.90;1.50;;;;;;;;;;12639703;28;20024;-85
2022/06/22 12:36:04;;;;;;;2.05;1.40;;;;;;;;;;12678915;28;20043;-84
2022/06/22 12:42:29;;;;;;;2.72;1.27;;;;;;;;;;12656916;28;20056;-84
2022/06/22 12:48:34;;;;;;;2.75;1.30;;;;;;;;;;12661160;28;20480;-83
2022/06/22 12:54:44;;;;;;;1.92;1.40;;;;;;;;;;12654948;28;20400;-84
2022/06/22 13:00:46;;;;;;;2.83;1.40;;;;;;;;;;12645184;28;20024;-84
2022/06/22 13:06:50;;;;;;;2.17;1.35;;;;;;;;;;12649078;28;20028;-83
2022/06/22 13:12:52;;;;;;;3.60;1.80;;;;;;;;;;12629629;28;20044;-83
2022/06/22 13:19:12;;;;;;;2.90;1.50;;;;;;;;;;12664606;28;20282;-79
2022/06/22 13:25:32;;;;;;;3.43;1.60;;;;;;;;;;12645510;28;20383;-83
2022/06/22 13:31:38;;;;;;;5.90;1.92;;;;;;;;;;12637733;28;20059;-80
2022/06/22 13:37:49;;;;;;;1.88;1.30;;;;;;;;;;12650558;28;20047;-80
2022/06/22 13:44:08;;;;;;;2.53;1.20;;;;;;;;;;12635442;28;20040;-85
2022/06/22 13:50:25;;;;;;;2.30;1.63;;;;;;;;;;12635221;28;20373;-84
2022/06/22 13:56:39;;;;;;;2.17;1.58;;;;;;;;;;12635957;28;20040;-84
2022/06/22 14:02:52;;;;;;;1.95;1.50;;;;;;;;;;12656898;28;20435;-85
2022/06/22 14:09:04;;;;;;;1.15;1.05;;;;;;;;;;12653239;28;20411;-87
2022/06/22 14:15:05;;;;;;;2.58;1.25;;;;;;;;;;12632099;28;20055;-86
2022/06/22 14:21:22;;;;;;;2.78;1.23;;;;;;;;;;12648564;28;20050;-87
2022/06/22 14:27:23;;;;;;;5.75;2.15;;;;;;;;;;12631509;28;20071;-87
2022/06/22 14:33:43;;;;;;;2.03;1.40;;;;;;;;;;12651371;28;20040;-82
2022/06/22 14:39:51;;;;;;;1.73;1.27;;;;;;;;;;12630224;28;20051;-84
2022/06/22 14:45:57;;;;;;;2.80;1.85;;;;;;;;;;12646558;28;20387;-79
2022/06/22 14:52:10;;;;;;;1.70;1.60;;;;;;;;;;12644876;28;20058;-78
2022/06/22 14:58:15;;;;;;;2.28;1.40;;;;;;;;;;12646993;28;20032;-79
2022/06/22 15:04:29;;;;;;;2.55;1.50;;;;;;;;;;12645838;28;20388;-78
2022/06/22 15:10:41;;;;;;;2.50;1.48;;;;;;;;;;12647909;28;20032;-80
2022/06/22 15:16:45;;;;;;;2.38;1.38;;;;;;;;;;12644936;28;20067;-78
2022/06/22 15:23:00;;;;;;;2.25;1.20;;;;;;;;;;12625659;28;20043;-84
2022/06/22 15:29:05;;;;;;;2.35;1.02;;;;;;;;;;12625387;28;20039;-82
2022/06/22 15:35:24;;;;;;;2.22;1.45;;;;;;;;;;12642407;28;20507;-82
2022/06/22 15:41:29;;;;;;;3.22;2.08;;;;;;;;;;12607934;28;20048;-80
2022/06/22 15:47:34;;;;;;;4.00;1.77;;;;;;;;;;12624637;28;20040;-82
2022/06/22 15:53:44;;;;;;;2.95;1.23;;;;;;;;;;12624937;28;20610;-78
2022/06/22 15:59:51;;;;;;;2.42;1.40;;;;;;;;;;12643467;28;20040;-84
2022/06/22 16:05:56;;;;;;;2.85;1.45;;;;;;;;;;12618756;28;20043;-79
2022/06/22 16:18:46;;;;;;;1.42;1.10;;;;;;;;;;12633868;28;20039;-81
2022/06/22 16:24:51;;;;;;;2.90;1.45;;;;;;;;;;12626567;28;20035;-79
2022/06/22 16:30:52;;;;;;;2.00;1.50;;;;;;;;;;12646161;28;20043;-83
2022/06/22 16:37:09;;;;;;;2.03;1.77;;;;;;;;;;12625592;28;20067;-84
2022/06/22 16:43:20;;;;;;;1.92;1.42;;;;;;;;;;12645832;28;20044;-79
2022/06/22 16:49:22;;;;;;;;;;;;;;;;;;12636036;28;20036;-84
2022/06/22 16:55:31;;;;;;;2.22;1.35;;;;;;;;;;12633749;28;19923;-79
2022/06/22 17:01:39;;;;;;;1.52;1.38;;;;;;;;;;12651572;28;20039;-79
2022/06/22 17:07:45;;;;;;;2.72;1.40;;;;;;;;;;12656122;28;20381;-79
2022/06/22 17:13:49;;;;;;;1.88;1.65;;;;;;;;;;12651034;28;20055;-83
2022/06/22 17:20:04;;;;;;;2.10;1.77;;;;;;;;;;12650938;28;20040;-83
2022/06/22 17:26:10;;;;;;;2.08;1.77;;;;;;;;;;12634617;28;20036;-80
2022/06/22 17:32:31;;;;;;;3.28;1.40;;;;;;;;;;12632164;28;20040;-79
2022/06/22 17:38:32;;;;;;;1.83;1.60;;;;;;;;;;12637972;28;20052;-83
2022/06/22 17:44:42;;;;;;;1.60;1.48;;;;;;;;;;12631846;28;20407;-83
2022/06/22 17:50:56;;;;;;;2.20;2.00;;;;;;;;;;12631334;28;20028;-79
2022/06/22 17:56:59;;;;;;;2.00;1.75;;;;;;;;;;12630952;28;20102;-83
2022/06/22 18:03:08;;;;;;;2.88;1.58;;;;;;;;;;12614679;28;20039;-84
2022/06/22 18:09:36;;;;;;;4.60;1.60;;;;;;;;;;12650114;28;20020;-80
2022/06/22 18:15:47;;;;;;;3.05;1.60;;;;;;;;;;12619902;28;20059;-83
2022/06/22 18:21:57;;;;;;;2.38;2.10;;;;;;;;;;12630014;28;20040;-84
2022/06/22 18:28:03;;;;;;;4.27;1.60;;;;;;;;;;12629081;28;20399;-79
2022/06/22 18:34:23;;;;;;;2.08;1.88;;;;;;;;;;12647226;28;20337;-83
2022/06/22 18:47:02;;;;;;;2.95;1.65;;;;;;;;;;12628602;28;20286;-84
2022/06/22 18:53:16;;;;;;;1.98;1.70;;;;;;;;;;12611704;28;20040;-80
2022/06/22 18:59:23;;;;;;;2.97;1.63;;;;;;;;;;12628562;28;20047;-84
2022/06/22 19:05:27;;;;;;;4.75;2.35;;;;;;;;;;12645337;28;20036;-79
2022/06/22 19:11:32;;;;;;;2.08;1.80;;;;;;;;;;12647720;28;20043;-80
2022/06/22 19:17:44;;;;;;;2.20;1.67;;;;;;;;;;12644914;28;20042;-80
2022/06/22 19:23:57;;;;;;;3.47;2.13;;;;;;;;;;12645299;28;20036;-79
2022/06/22 19:29:59;;;;;;;2.20;2.00;;;;;;;;;;12645583;28;20024;-84
2022/06/22 19:36:00;;;;;;;1.90;1.60;;;;;;;;;;12644220;28;20036;-79
2022/06/22 19:42:06;;;;;;;3.05;1.80;;;;;;;;;;12645913;28;20070;-84
2022/06/22 19:48:27;;;;;;;1.95;1.52;;;;;;;;;;12626816;28;20486;-79
2022/06/22 19:54:58;;;;;;;2.38;1.95;;;;;;;;;;12644546;28;20388;-83
2022/06/22 20:01:04;;;;;;;4.50;2.10;;;;;;;;;;12609664;28;20040;-79
2022/06/22 20:07:12;;;;;;;2.40;2.00;;;;;;;;;;12609629;28;20122;-84
2022/06/22 20:13:20;;;;;;;2.78;2.10;;;;;;;;;;12625538;28;20040;-79
2022/06/22 20:19:22;;;;;;;2.70;1.92;;;;;;;;;;12630697;28;20036;-79
2022/06/22 20:25:44;;;;;;;3.05;1.98;;;;;;;;;;12655580;28;20024;-84
2022/06/22 20:31:51;;;;;;;2.05;1.88;;;;;;;;;;12618211;28;20040;-79
2022/06/22 20:37:53;;;;;;;3.00;2.00;;;;;;;;;;12635008;28;20494;-80
2022/06/22 20:43:55;;;;;;;2.78;2.25;;;;;;;;;;12634585;28;20040;-84
2022/06/22 20:50:00;;;;;;;2.65;1.77;;;;;;;;;;12652343;28;20055;-79
2022/06/22 20:56:04;;;;;;;5.47;2.28;;;;;;;;;;12633755;28;20044;-79
2022/06/22 21:02:08;;;;;;;3.67;2.17;;;;;;;;;;12651719;28;20383;-79
2022/06/22 21:08:10;;;;;;;1.80;1.70;;;;;;;;;;12655390;28;20040;-79
2022/06/22 21:14:15;;;;;;;2.47;1.98;;;;;;;;;;12633972;28;20058;-79
2022/06/22 21:20:25;;;;;;;2.97;2.00;;;;;;;;;;12634771;28;20039;-84
2022/06/22 21:26:29;;;;;;;1.60;1.50;;;;;;;;;;12633371;28;20038;-84
2022/06/22 21:32:32;;;;;;;1.90;1.70;;;;;;;;;;12650516;28;20048;-79
2022/06/22 21:38:52;;;;;;;2.67;1.98;;;;;;;;;;12650683;28;20487;-79
2022/06/22 21:45:03;;;;;;;2.80;2.00;;;;;;;;;;12649802;28;20472;-84
2022/06/22 21:51:16;;;;;;;3.70;2.40;;;;;;;;;;12614972;28;20032;-79
2022/06/22 21:57:33;;;;;;;2.78;1.65;;;;;;;;;;12651177;28;20032;-84
2022/06/22 22:03:41;;;;;;;2.92;1.95;;;;;;;;;;12631749;28;20032;-79
2022/06/22 22:10:01;;;;;;;2.47;1.92;;;;;;;;;;12650253;28;20036;-79
2022/06/22 22:16:07;;;;;;;3.42;2.10;;;;;;;;;;12630400;28;20048;-85
2022/06/22 22:22:12;;;;;;;4.35;2.20;;;;;;;;;;12613293;28;20036;-79
2022/06/22 22:28:23;;;;;;;3.05;2.38;;;;;;;;;;12648132;28;20043;-84
2022/06/22 22:34:27;;;;;;;2.97;2.28;;;;;;;;;;12647605;28;20040;-79
2022/06/22 22:40:33;;;;;;;2.45;2.25;;;;;;;;;;12647694;28;20056;-84
2022/06/22 22:46:43;;;;;;;3.13;2.80;;;;;;;;;;12629965;28;20400;-85
2022/06/22 22:53:12;;;;;;;3.20;2.70;;;;;;;;;;12611580;28;20427;-84
2022/06/22 22:59:14;;;;;;;2.83;2.50;;;;;;;;;;12615507;28;20415;-79
2022/06/22 23:05:21;;;;;;;2.97;2.28;;;;;;;;;;12613206;28;20032;-84
2022/06/22 23:11:26;;;;;;;2.13;1.92;;;;;;;;;;12631040;28;20039;-85
2022/06/22 23:17:28;;;;;;;2.30;2.10;;;;;;;;;;12646625;28;20047;-80
2022/06/22 23:23:30;;;;;;;2.92;2.30;;;;;;;;;;12627198;28;20047;-79
2022/06/22 23:29:41;;;;;;;2.40;2.20;;;;;;;;;;12645395;28;20032;-79
2022/06/22 23:35:42;;;;;;;2.93;2.73;;;;;;;;;;12644821;28;20439;-84
2022/06/22 23:41:45;;;;;;;3.30;2.50;;;;;;;;;;12645341;28;20048;-79
2022/06/22 23:54:14;;;;;;;2.80;2.47;;;;;;;;;;12643814;28;20047;-80
